| time (UTC) | temp F | wind direction | speed MPH | gust MPH | rain 1hr in | rain 24hr in | rain mn in | humidity % | barometer mb |
| 20260507092552 | 48 | 199 | 0.0 | 1.0 | 0.00 | 0.00 | 0.15 | 93 | 1010.0 |
| 20260507092053 | 48 | 239 | 0.0 | 0.0 | 0.00 | 0.00 | 0.15 | 93 | 1010.0 |
| 20260507091553 | 48 | 256 | 0.0 | 0.0 | 0.00 | 0.00 | 0.15 | 93 | 1010.0 |
| 20260507091052 | 48 | 257 | 0.0 | 1.0 | 0.00 | 0.00 | 0.15 | 93 | 1010.0 |
| 20260507090553 | 48 | 226 | 1.0 | 1.0 | 0.00 | 0.00 | 0.15 | 93 | 1010.0 |
| 20260507090053 | 48 | 193 | 0.0 | 0.0 | 0.00 | 0.00 | 0.15 | 93 | 1010.0 |
| 20260507085552 | 48 | 0 | 0.0 | 0.0 | 0.00 | 0.00 | 0.15 | 93 | 1010.0 |
| 20260507085053 | 48 | 179 | 0.0 | 0.0 | 0.00 | 0.00 | 0.15 | 93 | 1010.0 |
| 20260507084552 | 48 | 162 | 0.0 | 0.0 | 0.00 | 0.00 | 0.15 | 93 | 1010.0 |
| 20260507084053 | 48 | 197 | 0.0 | 1.0 | 0.00 | 0.00 | 0.15 | 93 | 1010.0 |
| 20260507083552 | 48 | 267 | 0.0 | 0.0 | 0.00 | 0.00 | 0.15 | 93 | 1010.0 |
| 20260507083053 | 48 | 252 | 1.0 | 1.0 | 0.00 | 0.00 | 0.15 | 93 | 1010.0 |
| 20260507082554 | 49 | 172 | 0.0 | 0.0 | 0.00 | 0.00 | 0.15 | 93 | 1010.0 |
| 20260507082052 | 49 | 214 | 0.0 | 1.0 | 0.00 | 0.00 | 0.16 | 93 | 1010.0 |
| 20260507081553 | 49 | 182 | 0.0 | 0.0 | 0.00 | 0.00 | 0.16 | 93 | 1010.0 |
| 20260507081053 | 49 | 229 | 1.0 | 2.0 | 0.00 | 0.00 | 0.16 | 93 | 1010.0 |
| 20260507080553 | 49 | 206 | 0.0 | 1.0 | 0.00 | 0.00 | 0.16 | 93 | 1010.0 |
| 20260507080053 | 49 | 210 | 1.0 | 1.0 | 0.00 | 0.00 | 0.16 | 93 | 1010.0 |
| 20260507075554 | 49 | 213 | 0.0 | 0.0 | 0.00 | 0.00 | 0.16 | 93 | 1010.0 |
| 20260507075052 | 49 | 170 | 0.0 | 0.0 | 0.02 | 0.00 | 0.15 | 93 | 1010.0 |
| 20260507074553 | 49 | 178 | 1.0 | 1.0 | 0.00 | 0.00 | 0.15 | 93 | 1010.0 |
| 20260507074053 | 49 | 0 | 0.0 | 0.0 | 0.01 | 0.00 | 0.14 | 93 | 1010.0 |
| 20260507073553 | 49 | 247 | 1.0 | 1.0 | 0.04 | 0.00 | 0.15 | 93 | 1011.0 |
| 20260507073053 | 49 | 261 | 1.0 | 2.0 | 0.14 | 0.00 | 0.14 | 93 | 1010.0 |
| 20260507072553 | 49 | 241 | 0.0 | 1.0 | 0.01 | 0.00 | 0.14 | 92 | 1011.0 |
| 20260507072053 | 49 | 247 | 0.0 | 1.0 | 0.15 | 0.00 | 0.14 | 92 | 1011.0 |
| 20260507071552 | 49 | 231 | 1.0 | 1.0 | 0.09 | 0.00 | 0.13 | 92 | 1010.0 |
| 20260507071052 | 49 | 182 | 1.0 | 1.0 | 0.00 | 0.00 | 0.12 | 92 | 1011.0 |
| 20260507070552 | 49 | 0 | 0.0 | 0.0 | 0.09 | 0.00 | 0.11 | 92 | 1010.0 |
| 20260507070052 | 49 | 0 | 0.0 | 0.0 | 0.02 | 0.00 | 0.10 | 91 | 1010.0 |
| 20260507065552 | 49 | 234 | 0.0 | 1.0 | 0.06 | 0.00 | 0.10 | 91 | 1010.0 |
| 20260507065052 | 49 | 249 | 1.0 | 2.0 | 0.13 | 0.00 | 0.10 | 91 | 1011.0 |
| 20260507064553 | 49 | 200 | 0.0 | 1.0 | 0.03 | 0.00 | 0.09 | 90 | 1010.0 |
| 20260507064053 | 49 | 296 | 0.0 | 0.0 | 0.03 | 0.00 | 0.09 | 90 | 1011.0 |
| 20260507063553 | 50 | 140 | 1.0 | 2.0 | 0.11 | 0.00 | 0.08 | 90 | 1010.0 |
| 20260507063054 | 50 | 244 | 0.0 | 1.0 | 0.03 | 0.00 | 0.07 | 90 | 1011.0 |
| 20260507062554 | 50 | 270 | 1.0 | 2.0 | 0.11 | 0.00 | 0.07 | 89 | 1010.0 |
| 20260507062053 | 50 | 207 | 0.0 | 0.0 | 0.05 | 0.00 | 0.06 | 90 | 1010.0 |
| 20260507061553 | 51 | 181 | 0.0 | 2.0 | 0.07 | 0.00 | 0.05 | 89 | 1010.0 |
| 20260507061054 | 51 | 184 | 0.0 | 1.0 | 0.07 | 0.00 | 0.05 | 89 | 1010.0 |
| 20260507060553 | 51 | 203 | 0.0 | 1.0 | 0.08 | 0.00 | 0.04 | 88 | 1010.0 |
| 20260507060054 | 51 | 222 | 1.0 | 2.0 | 0.19 | 0.00 | 0.03 | 88 | 1010.0 |
| 20260507055552 | 51 | 157 | 0.0 | 0.0 | 0.03 | 0.00 | 0.03 | 88 | 1010.0 |
| 20260507055052 | 51 | 273 | 1.0 | 2.0 | 0.00 | 0.00 | 0.02 | 87 | 1010.0 |
| 20260507054553 | 51 | 172 | 0.0 | 1.0 | 0.00 | 0.00 | 0.02 | 86 | 1010.0 |
| 20260507054052 | 52 | 0 | 0.0 | 0.0 | 0.01 | 0.00 | 0.01 | 85 | 1010.0 |
| 20260507053558 | 52 | 273 | 1.0 | 1.0 | 0.00 | 0.00 | 0.01 | 87 | 1010.0 |
| 20260507053052 | 52 | 181 | 1.0 | 2.0 | 0.00 | 0.00 | 0.01 | 86 | 1010.0 |
| 20260507052552 | 52 | 0 | 0.0 | 0.0 | 0.00 | 0.00 | 0.01 | 87 | 1010.0 |
| 20260507052052 | 52 | 186 | 0.0 | 0.0 | 0.00 | 0.00 | 0.02 | 87 | 1009.0 |
| 20260507051553 | 52 | 163 | 0.0 | 0.0 | 0.00 | 0.00 | 0.02 | 87 | 1009.0 |
| 20260507051052 | 53 | 222 | 0.0 | 0.0 | 0.00 | 0.00 | 0.02 | 87 | 1009.0 |
| 20260507050552 | 53 | 284 | 0.0 | 0.0 | 0.00 | 0.00 | 0.00 | 87 | 1009.0 |
| 20260507050053 | 53 | 195 | 1.0 | 2.0 | 0.00 | 0.00 | 0.00 | 87 | 1009.0 |
| 20260507045552 | 53 | 176 | 1.0 | 1.0 | 0.00 | 0.00 | 0.00 | 86 | 1009.0 |
| 20260507045053 | 53 | 0 | 0.0 | 0.0 | 0.00 | 0.00 | 0.00 | 87 | 1009.0 |
| 20260507044552 | 53 | 0 | 0.0 | 0.0 | 0.00 | 0.00 | 0.00 | 87 | 1010.0 |
| 20260507044052 | 54 | 188 | 0.0 | 1.0 | 0.00 | 0.00 | 0.00 | 87 | 1010.0 |
| 20260507043552 | 54 | 215 | 0.0 | 1.0 | 0.00 | 0.00 | 0.00 | 87 | 1010.0 |
| 20260507043053 | 54 | 0 | 0.0 | 0.0 | 0.00 | 0.00 | 0.00 | 86 | 1010.0 |
| 20260507042555 | 54 | 186 | 0.0 | 1.0 | 0.00 | 0.00 | 0.00 | 87 | 1010.0 |
| 20260507041621 | 54 | 209 | 0.0 | 1.0 | 0.00 | 0.00 | 0.00 | 87 | 1009.0 |
| 20260507041053 | 54 | 0 | 0.0 | 0.0 | 0.00 | 0.00 | 0.00 | 87 | 1010.0 |
| 20260507040555 | 54 | 216 | 0.0 | 0.0 | 0.00 | 0.00 | 0.00 | 87 | 1010.0 |
| 20260507040055 | 54 | 182 | 0.0 | 1.0 | 0.00 | 0.00 | 0.00 | 87 | 1010.0 |
| 20260507035552 | 55 | 230 | 1.0 | 1.0 | 0.00 | 0.00 | 0.18 | 87 | 1010.0 |
| 20260507035052 | 55 | 198 | 0.0 | 1.0 | 0.00 | 0.00 | 0.18 | 88 | 1010.0 |
| 20260507034552 | 55 | 177 | 0.0 | 0.0 | 0.00 | 0.00 | 0.18 | 88 | 1010.0 |
| 20260507034053 | 55 | 257 | 0.0 | 0.0 | 0.00 | 0.00 | 0.18 | 87 | 1010.0 |
| 20260507033552 | 55 | 254 | 0.0 | 1.0 | 0.00 | 0.00 | 0.18 | 89 | 1010.0 |
| 20260507033052 | 55 | 204 | 1.0 | 1.0 | 0.00 | 0.00 | 0.18 | 89 | 1009.0 |
| 20260507032553 | 55 | 242 | 1.0 | 2.0 | 0.00 | 0.00 | 0.18 | 89 | 1010.0 |
| 20260507032053 | 55 | 183 | 3.0 | 3.0 | 0.00 | 0.00 | 0.18 | 90 | 1009.0 |
| 20260507031553 | 55 | 0 | 0.0 | 0.0 | 0.00 | 0.00 | 0.18 | 89 | 1009.0 |
| 20260507031052 | 55 | 211 | 2.0 | 2.0 | 0.00 | 0.00 | 0.18 | 89 | 1009.0 |
| 20260507030553 | 55 | 235 | 0.0 | 1.0 | 0.00 | 0.00 | 0.18 | 89 | 1009.0 |
| 20260507030053 | 55 | 198 | 1.0 | 2.0 | 0.00 | 0.00 | 0.18 | 89 | 1009.0 |
| 20260507025552 | 55 | 219 | 2.0 | 2.0 | 0.00 | 0.00 | 0.18 | 88 | 1009.0 |
| 20260507025052 | 55 | 131 | 0.0 | 1.0 | 0.00 | 0.00 | 0.18 | 89 | 1009.0 |
| 20260507024553 | 55 | 177 | 1.0 | 1.0 | 0.00 | 0.00 | 0.18 | 89 | 1009.0 |
| 20260507024054 | 55 | 190 | 2.0 | 2.0 | 0.00 | 0.00 | 0.18 | 89 | 1009.0 |
| 20260507023552 | 55 | 193 | 0.0 | 1.0 | 0.00 | 0.00 | 0.18 | 89 | 1009.0 |
| 20260507023055 | 55 | 199 | 1.0 | 1.0 | 0.00 | 0.00 | 0.18 | 90 | 1009.0 |
| 20260507022553 | 55 | 165 | 0.0 | 1.0 | 0.00 | 0.00 | 0.18 | 89 | 1009.0 |
| 20260507022053 | 55 | 249 | 0.0 | 1.0 | 0.00 | 0.00 | 0.18 | 89 | 1009.0 |
| 20260507021552 | 55 | 0 | 0.0 | 0.0 | 0.00 | 0.00 | 0.18 | 89 | 1009.0 |
| 20260507021052 | 55 | 203 | 0.0 | 1.0 | 0.00 | 0.00 | 0.18 | 89 | 1009.0 |
| 20260507020552 | 56 | 31 | 0.0 | 1.0 | 0.00 | 0.00 | 0.18 | 89 | 1010.0 |
| 20260507020053 | 56 | 222 | 1.0 | 1.0 | 0.00 | 0.00 | 0.17 | 89 | 1009.0 |
| 20260507015553 | 57 | 27 | 0.0 | 1.0 | 0.00 | 0.00 | 0.17 | 89 | 1009.0 |
| 20260507015053 | 57 | 153 | 1.0 | 2.0 | 0.00 | 0.00 | 0.17 | 89 | 1009.0 |
| 20260507014553 | 58 | 239 | 1.0 | 3.0 | 0.00 | 0.00 | 0.17 | 90 | 1009.0 |
| 20260507014052 | 59 | 133 | 1.0 | 2.0 | 0.00 | 0.00 | 0.17 | 90 | 1009.0 |
| 20260507013553 | 60 | 61 | 2.0 | 2.0 | 0.02 | 0.00 | 0.17 | 90 | 1009.0 |
| 20260507013052 | 61 | 359 | 2.0 | 2.0 | 0.00 | 0.00 | 0.17 | 92 | 1009.0 |
| 20260507012552 | 62 | 345 | 1.0 | 2.0 | 0.01 | 0.00 | 0.17 | 93 | 1009.0 |
| 20260507012052 | 62 | 113 | 0.0 | 0.0 | 0.00 | 0.00 | 0.17 | 93 | 1009.0 |
| 20260507011553 | 62 | 79 | 0.0 | 0.0 | 0.01 | 0.00 | 0.17 | 93 | 1009.0 |
| 20260507011052 | 62 | 0 | 0.0 | 0.0 | 0.00 | 0.00 | 0.16 | 93 | 1009.0 |
| 20260507010554 | 62 | 0 | 0.0 | 0.0 | 0.02 | 0.00 | 0.17 | 93 | 1009.0 |
| 20260507010053 | 62 | 171 | 2.0 | 2.0 | 0.07 | 0.00 | 0.17 | 93 | 1009.0 |
| 20260507005553 | 62 | 0 | 0.0 | 0.0 | 0.12 | 0.00 | 0.16 | 93 | 1009.0 |
| 20260507005052 | 62 | 0 | 0.0 | 0.0 | 0.10 | 0.00 | 0.14 | 93 | 1009.0 |
| 20260507004552 | 62 | 0 | 0.0 | 0.0 | 0.08 | 0.00 | 0.13 | 93 | 1009.0 |
| 20260507004052 | 62 | 0 | 0.0 | 0.0 | 0.03 | 0.00 | 0.13 | 92 | 1008.0 |
| 20260507003552 | 62 | 0 | 0.0 | 0.0 | 0.00 | 0.00 | 0.13 | 92 | 1008.0 |
| 20260507003053 | 62 | 0 | 0.0 | 0.0 | 0.00 | 0.00 | 0.13 | 92 | 1008.0 |
| 20260507002553 | 62 | 0 | 0.0 | 0.0 | 0.00 | 0.00 | 0.13 | 92 | 1008.0 |
| 20260507002052 | 62 | 0 | 0.0 | 0.0 | 0.00 | 0.00 | 0.13 | 92 | 1008.0 |
| 20260507001553 | 62 | 0 | 0.0 | 0.0 | 0.00 | 0.00 | 0.13 | 91 | 1008.0 |
| 20260507001053 | 62 | 0 | 0.0 | 0.0 | 0.00 | 0.00 | 0.13 | 91 | 1008.0 |
| 20260507000552 | 62 | 0 | 0.0 | 0.0 | 0.00 | 0.00 | 0.13 | 91 | 1008.0 |
| 20260507000053 | 62 | 0 | 0.0 | 0.0 | 0.00 | 0.00 | 0.13 | 91 | 1008.0 |
| 20260506235553 | 62 | 0 | 0.0 | 0.0 | 0.00 | 0.00 | 0.13 | 91 | 1008.0 |
| 20260506235052 | 63 | 0 | 0.0 | 0.0 | 0.00 | 0.00 | 0.13 | 91 | 1008.0 |
| 20260506234552 | 63 | 154 | 0.0 | 0.0 | 0.00 | 0.00 | 0.13 | 91 | 1008.0 |
| 20260506234052 | 63 | 0 | 0.0 | 0.0 | 0.00 | 0.00 | 0.13 | 91 | 1008.0 |
| 20260506233556 | 63 | 0 | 0.0 | 0.0 | 0.00 | 0.00 | 0.13 | 91 | 1008.0 |
| 20260506233053 | 63 | 158 | 0.0 | 0.0 | 0.00 | 0.00 | 0.13 | 91 | 1008.0 |
| 20260506232553 | 63 | 216 | 1.0 | 2.0 | 0.00 | 0.00 | 0.13 | 91 | 1008.0 |
| 20260506232052 | 63 | 0 | 0.0 | 0.0 | 0.00 | 0.00 | 0.13 | 91 | 1008.0 |
| 20260506231552 | 63 | 96 | 0.0 | 1.0 | 0.00 | 0.00 | 0.13 | 91 | 1008.0 |
| 20260506231054 | 63 | 226 | 0.0 | 1.0 | 0.00 | 0.00 | 0.13 | 90 | 1008.0 |
| 20260506230552 | 63 | 189 | 0.0 | 1.0 | 0.00 | 0.00 | 0.13 | 91 | 1008.0 |
| 20260506230052 | 63 | 0 | 0.0 | 0.0 | 0.00 | 0.00 | 0.13 | 90 | 1008.0 |
| 20260506225552 | 63 | 335 | 0.0 | 0.0 | 0.00 | 0.00 | 0.13 | 90 | 1008.0 |
| 20260506225053 | 63 | 198 | 0.0 | 0.0 | 0.00 | 0.00 | 0.13 | 91 | 1008.0 |
| 20260506224554 | 63 | 59 | 0.0 | 0.0 | 0.00 | 0.00 | 0.13 | 91 | 1008.0 |
| 20260506224053 | 63 | 0 | 0.0 | 0.0 | 0.00 | 0.00 | 0.13 | 91 | 1008.0 |
| 20260506223552 | 63 | 196 | 0.0 | 1.0 | 0.00 | 0.00 | 0.13 | 91 | 1008.0 |
| 20260506223053 | 62 | 210 | 1.0 | 2.0 | 0.00 | 0.00 | 0.13 | 91 | 1008.0 |
| 20260506222553 | 62 | 0 | 0.0 | 0.0 | 0.00 | 0.00 | 0.13 | 91 | 1008.0 |
| 20260506222053 | 62 | 0 | 0.0 | 0.0 | 0.00 | 0.00 | 0.13 | 91 | 1008.0 |
| 20260506221553 | 62 | 0 | 0.0 | 0.0 | 0.00 | 0.00 | 0.13 | 91 | 1008.0 |
| 20260506221052 | 62 | 0 | 0.0 | 0.0 | 0.00 | 0.00 | 0.13 | 91 | 1008.0 |
| 20260506220552 | 62 | 0 | 0.0 | 0.0 | 0.00 | 0.00 | 0.13 | 91 | 1008.0 |
| 20260506220053 | 62 | 176 | 1.0 | 2.0 | 0.00 | 0.00 | 0.13 | 92 | 1008.0 |
| 20260506215552 | 62 | 0 | 0.0 | 0.0 | 0.00 | 0.00 | 0.13 | 92 | 1008.0 |
| 20260506215052 | 62 | 0 | 0.0 | 0.0 | 0.00 | 0.00 | 0.13 | 92 | 1008.0 |
| 20260506214552 | 62 | 0 | 0.0 | 0.0 | 0.00 | 0.00 | 0.13 | 92 | 1007.0 |
| 20260506214052 | 62 | 164 | 0.0 | 1.0 | 0.00 | 0.00 | 0.13 | 92 | 1007.0 |
| 20260506213553 | 62 | 188 | 0.0 | 2.0 | 0.00 | 0.00 | 0.13 | 92 | 1007.0 |
| 20260506213052 | 62 | 191 | 0.0 | 1.0 | 0.00 | 0.00 | 0.13 | 92 | 1007.0 |
| 20260506212553 | 62 | 262 | 0.0 | 0.0 | 0.00 | 0.00 | 0.13 | 92 | 1007.0 |
| 20260506212052 | 62 | 158 | 1.0 | 2.0 | 0.00 | 0.00 | 0.13 | 92 | 1007.0 |
| 20260506211553 | 61 | 192 | 2.0 | 2.0 | 0.00 | 0.00 | 0.13 | 92 | 1007.0 |
| 20260506211052 | 61 | 290 | 0.0 | 1.0 | 0.00 | 0.00 | 0.13 | 93 | 1007.0 |
| 20260506210554 | 61 | 178 | 0.0 | 0.0 | 0.00 | 0.00 | 0.13 | 93 | 1007.0 |
| 20260506210053 | 61 | 34 | 0.0 | 0.0 | 0.00 | 0.00 | 0.13 | 93 | 1007.0 |
| 20260506205553 | 61 | 195 | 1.0 | 2.0 | 0.00 | 0.00 | 0.13 | 93 | 1007.0 |
| 20260506205053 | 61 | 268 | 0.0 | 1.0 | 0.00 | 0.00 | 0.13 | 93 | 1007.0 |
| 20260506204553 | 61 | 187 | 0.0 | 1.0 | 0.00 | 0.00 | 0.13 | 93 | 1007.0 |
| 20260506204052 | 61 | 186 | 0.0 | 0.0 | 0.00 | 0.00 | 0.13 | 93 | 1007.0 |
| 20260506203553 | 61 | 280 | 0.0 | 1.0 | 0.00 | 0.00 | 0.13 | 93 | 1007.0 |
| 20260506203059 | 61 | 192 | 1.0 | 2.0 | 0.00 | 0.00 | 0.13 | 93 | 1007.0 |
| 20260506202552 | 61 | 189 | 1.0 | 2.0 | 0.00 | 0.00 | 0.13 | 93 | 1007.0 |
| 20260506202052 | 61 | 202 | 1.0 | 1.0 | 0.00 | 0.00 | 0.12 | 93 | 1007.0 |
| 20260506201553 | 61 | 258 | 0.0 | 1.0 | 0.00 | 0.00 | 0.12 | 93 | 1007.0 |
| 20260506201052 | 61 | 194 | 2.0 | 2.0 | 0.00 | 0.00 | 0.12 | 93 | 1007.0 |
| 20260506200552 | 61 | 213 | 1.0 | 2.0 | 0.00 | 0.00 | 0.12 | 93 | 1007.0 |
| 20260506200052 | 61 | 226 | 1.0 | 2.0 | 0.00 | 0.00 | 0.12 | 93 | 1007.0 |
| 20260506195552 | 61 | 200 | 1.0 | 2.0 | 0.00 | 0.00 | 0.12 | 93 | 1007.0 |
| 20260506195053 | 61 | 248 | 0.0 | 1.0 | 0.00 | 0.00 | 0.12 | 93 | 1007.0 |
| 20260506194553 | 61 | 192 | 1.0 | 2.0 | 0.00 | 0.00 | 0.12 | 93 | 1008.0 |
| 20260506194052 | 61 | 247 | 1.0 | 2.0 | 0.00 | 0.00 | 0.12 | 93 | 1008.0 |
| 20260506193553 | 61 | 206 | 2.0 | 2.0 | 0.00 | 0.00 | 0.12 | 93 | 1008.0 |
| 20260506193053 | 61 | 208 | 2.0 | 3.0 | 0.00 | 0.00 | 0.12 | 92 | 1008.0 |
| 20260506192552 | 61 | 165 | 0.0 | 1.0 | 0.07 | 0.00 | 0.12 | 92 | 1008.0 |
| 20260506192053 | 61 | 347 | 1.0 | 2.0 | 0.10 | 0.00 | 0.12 | 92 | 1008.0 |
| 20260506191552 | 61 | 227 | 2.0 | 2.0 | 0.01 | 0.00 | 0.11 | 91 | 1008.0 |
| 20260506191052 | 61 | 230 | 2.0 | 3.0 | 0.07 | 0.00 | 0.11 | 91 | 1008.0 |
| 20260506190553 | 61 | 240 | 0.0 | 1.0 | 0.01 | 0.00 | 0.10 | 91 | 1008.0 |
| 20260506190052 | 61 | 212 | 1.0 | 2.0 | 0.00 | 0.00 | 0.10 | 91 | 1008.0 |
| 20260506185553 | 61 | 219 | 0.0 | 0.0 | 0.00 | 0.00 | 0.10 | 91 | 1008.0 |
| 20260506185052 | 61 | 216 | 1.0 | 2.0 | 0.00 | 0.00 | 0.10 | 91 | 1008.0 |
| 20260506184552 | 61 | 268 | 1.0 | 3.0 | 0.00 | 0.00 | 0.10 | 91 | 1008.0 |
| 20260506184053 | 62 | 276 | 1.0 | 2.0 | 0.00 | 0.00 | 0.10 | 91 | 1008.0 |
| 20260506183553 | 62 | 194 | 1.0 | 2.0 | 0.00 | 0.00 | 0.10 | 91 | 1008.0 |
| 20260506183053 | 62 | 334 | 1.0 | 3.0 | 0.12 | 0.00 | 0.10 | 91 | 1008.0 |
| 20260506182553 | 62 | 295 | 1.0 | 2.0 | 0.01 | 0.00 | 0.09 | 90 | 1008.0 |
| 20260506182053 | 62 | 359 | 0.0 | 1.0 | 0.02 | 0.00 | 0.09 | 90 | 1008.0 |
| 20260506181553 | 62 | 261 | 1.0 | 2.0 | 0.08 | 0.00 | 0.09 | 89 | 1008.0 |
| 20260506181052 | 62 | 226 | 1.0 | 1.0 | 0.00 | 0.00 | 0.09 | 89 | 1008.0 |
| 20260506180552 | 62 | 342 | 0.0 | 0.0 | 0.00 | 0.00 | 0.08 | 89 | 1008.0 |
| 20260506180052 | 62 | 235 | 1.0 | 3.0 | 0.00 | 0.00 | 0.08 | 88 | 1008.0 |
| 20260506175553 | 63 | 191 | 2.0 | 4.0 | 0.01 | 0.00 | 0.08 | 88 | 1008.0 |
| 20260506175052 | 63 | 264 | 1.0 | 2.0 | 0.00 | 0.00 | 0.08 | 88 | 1008.0 |
| 20260506174552 | 63 | 209 | 1.0 | 2.0 | 0.00 | 0.00 | 0.08 | 88 | 1008.0 |
| 20260506174054 | 63 | 277 | 1.0 | 3.0 | 0.00 | 0.00 | 0.08 | 88 | 1008.0 |
| 20260506173553 | 63 | 297 | 1.0 | 2.0 | 0.00 | 0.00 | 0.08 | 88 | 1008.0 |
| 20260506173054 | 63 | 206 | 1.0 | 2.0 | 0.01 | 0.00 | 0.08 | 89 | 1008.0 |
| 20260506172552 | 62 | 180 | 0.0 | 0.0 | 0.00 | 0.00 | 0.08 | 89 | 1008.0 |
| 20260506172052 | 62 | 19 | 1.0 | 2.0 | 0.01 | 0.00 | 0.08 | 89 | 1008.0 |
| 20260506171552 | 62 | 195 | 0.0 | 2.0 | 0.04 | 0.00 | 0.08 | 90 | 1009.0 |
| 20260506171054 | 62 | 357 | 1.0 | 1.0 | 0.04 | 0.00 | 0.07 | 90 | 1008.0 |
| 20260506170554 | 62 | 99 | 0.0 | 2.0 | 0.07 | 0.00 | 0.07 | 89 | 1008.0 |
| 20260506170053 | 62 | 49 | 0.0 | 1.0 | 0.06 | 0.00 | 0.06 | 89 | 1008.0 |
| 20260506165553 | 62 | 0 | 0.0 | 0.0 | 0.00 | 0.00 | 0.06 | 88 | 1008.0 |
| 20260506165052 | 62 | 262 | 0.0 | 1.0 | 0.00 | 0.00 | 0.05 | 88 | 1008.0 |
| 20260506164555 | 62 | 0 | 0.0 | 0.0 | 0.00 | 0.00 | 0.05 | 88 | 1009.0 |
| 20260506164052 | 62 | 215 | 1.0 | 2.0 | 0.05 | 0.00 | 0.05 | 88 | 1009.0 |
| 20260506163553 | 62 | 339 | 0.0 | 1.0 | 0.02 | 0.00 | 0.04 | 87 | 1009.0 |
| 20260506163053 | 62 | 269 | 0.0 | 1.0 | 0.03 | 0.00 | 0.04 | 87 | 1009.0 |
| 20260506162552 | 63 | 176 | 1.0 | 2.0 | 0.01 | 0.00 | 0.04 | 87 | 1009.0 |
| 20260506162053 | 63 | 234 | 2.0 | 4.0 | 0.03 | 0.00 | 0.05 | 85 | 1009.0 |
| 20260506161552 | 63 | 0 | 0.0 | 0.0 | 0.08 | 0.00 | 0.04 | 85 | 1009.0 |
| 20260506161053 | 63 | 0 | 0.0 | 0.0 | 0.03 | 0.00 | 0.04 | 85 | 1009.0 |
| 20260506160552 | 64 | 114 | 0.0 | 0.0 | 0.01 | 0.00 | 0.03 | 84 | 1010.0 |
| 20260506160053 | 64 | 0 | 0.0 | 0.0 | 0.00 | 0.00 | 0.03 | 84 | 1010.0 |
| 20260506155553 | 64 | 151 | 0.0 | 0.0 | 0.00 | 0.00 | 0.03 | 83 | 1010.0 |
| 20260506155052 | 64 | 86 | 0.0 | 1.0 | 0.02 | 0.00 | 0.02 | 82 | 1010.0 |
| 20260506154553 | 65 | 7 | 0.0 | 1.0 | 0.00 | 0.00 | 0.02 | 80 | 1010.0 |
| 20260506154053 | 65 | 142 | 0.0 | 1.0 | 0.00 | 0.00 | 0.02 | 79 | 1010.0 |
| 20260506153553 | 65 | 168 | 0.0 | 1.0 | 0.00 | 0.00 | 0.01 | 79 | 1010.0 |
| 20260506153053 | 65 | 276 | 0.0 | 1.0 | 0.01 | 0.00 | 0.01 | 79 | 1010.0 |
| 20260506152553 | 65 | 267 | 2.0 | 3.0 | 0.01 | 0.00 | 0.01 | 77 | 1010.0 |
| 20260506152053 | 65 | 216 | 1.0 | 2.0 | 0.00 | 0.00 | 0.00 | 77 | 1009.0 |
| 20260506151553 | 65 | 197 | 2.0 | 3.0 | 0.00 | 0.00 | 0.00 | 76 | 1009.0 |
| 20260506151053 | 66 | 258 | 2.0 | 2.0 | 0.00 | 0.00 | 0.00 | 76 | 1009.0 |
| 20260506150553 | 66 | 139 | 3.0 | 4.0 | 0.00 | 0.00 | 0.00 | 74 | 1009.0 |
| 20260506150054 | 66 | 212 | 1.0 | 2.0 | 0.00 | 0.00 | 0.00 | 73 | 1010.0 |
| 20260506145604 | 67 | 145 | 2.0 | 3.0 | 0.00 | 0.00 | 0.00 | 73 | 1010.0 |
| 20260506145053 | 67 | 250 | 2.0 | 2.0 | 0.00 | 0.00 | 0.00 | 71 | 1010.0 |
| 20260506144555 | 67 | 205 | 1.0 | 2.0 | 0.00 | 0.00 | 0.00 | 71 | 1010.0 |
| 20260506144053 | 67 | 269 | 1.0 | 2.0 | 0.00 | 0.00 | 0.00 | 71 | 1010.0 |
| 20260506143553 | 67 | 259 | 1.0 | 3.0 | 0.00 | 0.00 | 0.00 | 71 | 1010.0 |
| 20260506143052 | 67 | 171 | 4.0 | 7.0 | 0.00 | 0.00 | 0.00 | 71 | 1010.0 |
| 20260506142553 | 67 | 213 | 1.0 | 3.0 | 0.00 | 0.00 | 0.00 | 71 | 1010.0 |
| 20260506142052 | 66 | 157 | 2.0 | 3.0 | 0.00 | 0.00 | 0.00 | 72 | 1010.0 |
| 20260506141552 | 66 | 236 | 0.0 | 1.0 | 0.00 | 0.00 | 0.00 | 72 | 1010.0 |
| 20260506141055 | 66 | 220 | 1.0 | 1.0 | 0.00 | 0.00 | 0.00 | 72 | 1010.0 |
| 20260506140552 | 66 | 202 | 1.0 | 2.0 | 0.00 | 0.00 | 0.00 | 71 | 1010.0 |
| 20260506140054 | 66 | 260 | 1.0 | 2.0 | 0.00 | 0.00 | 0.00 | 71 | 1010.0 |
| 20260506135553 | 66 | 4 | 1.0 | 1.0 | 0.00 | 0.00 | 0.00 | 71 | 1010.0 |
| 20260506135053 | 67 | 309 | 2.0 | 2.0 | 0.00 | 0.00 | 0.00 | 71 | 1010.0 |
| 20260506134554 | 67 | 253 | 0.0 | 1.0 | 0.00 | 0.00 | 0.00 | 71 | 1010.0 |
| 20260506134053 | 67 | 260 | 1.0 | 3.0 | 0.00 | 0.00 | 0.00 | 71 | 1010.0 |
| 20260506133552 | 67 | 302 | 1.0 | 2.0 | 0.00 | 0.00 | 0.00 | 71 | 1010.0 |
| 20260506133052 | 67 | 351 | 2.0 | 4.0 | 0.00 | 0.00 | 0.00 | 71 | 1010.0 |
| 20260506132553 | 67 | 198 | 1.0 | 3.0 | 0.00 | 0.00 | 0.00 | 71 | 1010.0 |
| 20260506132053 | 67 | 195 | 2.0 | 4.0 | 0.00 | 0.00 | 0.00 | 71 | 1010.0 |
| 20260506131553 | 66 | 154 | 2.0 | 3.0 | 0.00 | 0.00 | 0.00 | 71 | 1010.0 |
| 20260506131053 | 66 | 8 | 1.0 | 2.0 | 0.00 | 0.00 | 0.00 | 72 | 1010.0 |
| 20260506130553 | 66 | 223 | 1.0 | 1.0 | 0.00 | 0.00 | 0.00 | 72 | 1010.0 |
| 20260506130053 | 66 | 259 | 0.0 | 1.0 | 0.00 | 0.00 | 0.00 | 72 | 1010.0 |
| 20260506125553 | 66 | 224 | 1.0 | 3.0 | 0.00 | 0.00 | 0.00 | 72 | 1010.0 |
| 20260506125054 | 66 | 202 | 2.0 | 2.0 | 0.00 | 0.00 | 0.00 | 72 | 1010.0 |
| 20260506124553 | 66 | 212 | 1.0 | 2.0 | 0.00 | 0.00 | 0.00 | 73 | 1010.0 |
| 20260506124052 | 66 | 247 | 2.0 | 3.0 | 0.00 | 0.00 | 0.00 | 73 | 1010.0 |
| 20260506123552 | 65 | 232 | 1.0 | 2.0 | 0.00 | 0.00 | 0.00 | 73 | 1010.0 |
| 20260506123053 | 65 | 40 | 1.0 | 1.0 | 0.00 | 0.00 | 0.00 | 73 | 1009.0 |
| 20260506122552 | 65 | 228 | 2.0 | 2.0 | 0.00 | 0.00 | 0.00 | 74 | 1010.0 |
| 20260506122053 | 65 | 234 | 1.0 | 1.0 | 0.00 | 0.00 | 0.00 | 75 | 1010.0 |
| 20260506121553 | 65 | 221 | 1.0 | 2.0 | 0.00 | 0.00 | 0.00 | 75 | 1010.0 |
| 20260506121052 | 65 | 9 | 0.0 | 0.0 | 0.00 | 0.00 | 0.00 | 75 | 1010.0 |
| 20260506120553 | 65 | 215 | 1.0 | 2.0 | 0.00 | 0.00 | 0.00 | 75 | 1010.0 |
| 20260506120053 | 65 | 247 | 2.0 | 3.0 | 0.00 | 0.00 | 0.00 | 75 | 1010.0 |
| 20260506115552 | 65 | 223 | 1.0 | 2.0 | 0.00 | 0.00 | 0.00 | 75 | 1010.0 |
| 20260506115052 | 65 | 177 | 2.0 | 3.0 | 0.00 | 0.00 | 0.00 | 75 | 1010.0 |
| 20260506114552 | 64 | 170 | 2.0 | 3.0 | 0.00 | 0.00 | 0.00 | 76 | 1010.0 |
| 20260506114053 | 64 | 40 | 1.0 | 1.0 | 0.00 | 0.00 | 0.00 | 76 | 1010.0 |
| 20260506113553 | 64 | 298 | 0.0 | 0.0 | 0.00 | 0.00 | 0.00 | 76 | 1010.0 |
| 20260506113053 | 64 | 308 | 0.0 | 1.0 | 0.00 | 0.00 | 0.00 | 77 | 1010.0 |
| 20260506112552 | 64 | 147 | 0.0 | 0.0 | 0.00 | 0.00 | 0.00 | 77 | 1010.0 |
| 20260506112053 | 64 | 151 | 0.0 | 1.0 | 0.00 | 0.00 | 0.00 | 77 | 1010.0 |
| 20260506111552 | 64 | 228 | 0.0 | 0.0 | 0.00 | 0.00 | 0.00 | 77 | 1010.0 |
| 20260506111053 | 63 | 252 | 0.0 | 1.0 | 0.00 | 0.00 | 0.00 | 78 | 1010.0 |
| 20260506110552 | 63 | 166 | 1.0 | 1.0 | 0.00 | 0.00 | 0.00 | 78 | 1010.0 |
| 20260506110052 | 63 | 312 | 0.0 | 1.0 | 0.00 | 0.00 | 0.00 | 78 | 1010.0 |
| 20260506105553 | 63 | 57 | 1.0 | 1.0 | 0.00 | 0.00 | 0.00 | 78 | 1010.0 |
| 20260506105054 | 63 | 317 | 0.0 | 0.0 | 0.00 | 0.00 | 0.00 | 79 | 1010.0 |
| 20260506104554 | 63 | 105 | 0.0 | 0.0 | 0.00 | 0.00 | 0.00 | 79 | 1010.0 |
| 20260506104053 | 63 | 173 | 1.0 | 2.0 | 0.00 | 0.00 | 0.00 | 79 | 1010.0 |
| 20260506103553 | 63 | 258 | 0.0 | 1.0 | 0.00 | 0.00 | 0.00 | 79 | 1010.0 |
| 20260506103053 | 63 | 316 | 0.0 | 1.0 | 0.00 | 0.00 | 0.00 | 79 | 1010.0 |
| 20260506102553 | 63 | 277 | 2.0 | 2.0 | 0.00 | 0.00 | 0.00 | 79 | 1010.0 |
| 20260506102052 | 63 | 207 | 1.0 | 2.0 | 0.00 | 0.00 | 0.00 | 79 | 1010.0 |
| 20260506101554 | 63 | 240 | 0.0 | 1.0 | 0.00 | 0.00 | 0.00 | 79 | 1010.0 |
| 20260506101053 | 63 | 215 | 1.0 | 2.0 | 0.00 | 0.00 | 0.00 | 79 | 1010.0 |
| 20260506100552 | 63 | 294 | 1.0 | 2.0 | 0.00 | 0.00 | 0.00 | 79 | 1010.0 |
| 20260506100054 | 63 | 155 | 0.0 | 1.0 | 0.00 | 0.00 | 0.00 | 79 | 1010.0 |
| 20260506095552 | 63 | 208 | 1.0 | 2.0 | 0.00 | 0.00 | 0.00 | 79 | 1010.0 |
| 20260506095052 | 63 | 314 | 1.0 | 2.0 | 0.00 | 0.00 | 0.00 | 79 | 1010.0 |
| 20260506094553 | 63 | 269 | 1.0 | 1.0 | 0.00 | 0.00 | 0.00 | 80 | 1010.0 |
| 20260506094057 | 63 | 83 | 1.0 | 2.0 | 0.00 | 0.00 | 0.00 | 80 | 1010.0 |
| 20260506093553 | 62 | 176 | 0.0 | 1.0 | 0.00 | 0.00 | 0.00 | 80 | 1010.0 |
| 20260506093052 | 62 | 127 | 1.0 | 2.0 | 0.00 | 0.00 | 0.00 | 80 | 1010.0 |